Billtown, Indiana
Current Conditions -  °F | °C
As of 4:53 AM on Friday 28 Nov 2014 (Local Time) from KHUF Reporting Station
Overcast Overcast  
Wind Chill: 15°   Ceiling: 8000
Heat Index: 21°   Visibility: 10mi
Dew Point: 15°   Wind: 5mph
Humidity: 78%   Direction: 180°S
Pressure: 30.4"   Gusts: NA
Location:  39.5158°N, 87.1262°W
Report Text: KHUF 280953Z 18004KT 10SM OVC080 M06/M09 A3040 RMK AO2 SLP303 T10611094
Loading
Personal Weather Stations






























Interactive Weather Map New forecast layout! Learn more

10-Day Weather Forecast

Advertisements
Track Severe Weather on mobile